Time;durP1;ratioP1;P1;durP2;ratioP2;P2;SDS_P1;SDS_P2;PMS_P1;PMS_P2;Temp;Humidity;BMP_temperature;BMP_pressure;BME280_temperature;BME280_humidity;BME280_pressure;Samples;Min_cycle;Max_cycle;Signal;HPM_P1;HPM_P2
2023/06/11 00:02:15;;;;;;;6.13;3.97;;;17.60;99.90;;;;;;5065029;28;20574;-81
2023/06/11 00:04:45;;;;;;;8.25;3.38;;;17.50;99.90;;;;;;5066886;28;20037;-81
2023/06/11 00:07:11;;;;;;;10.95;3.47;;;17.50;99.90;;;;;;5067355;28;20466;-80
2023/06/11 00:09:36;;;;;;;12.45;4.88;;;17.60;99.90;;;;;;5066798;28;20063;-81
2023/06/11 00:12:02;;;;;;;10.63;3.83;;;17.50;99.90;;;;;;5068456;28;20048;-81
2023/06/11 00:14:28;;;;;;;11.05;4.53;;;17.40;99.90;;;;;;5064663;28;20411;-80
2023/06/11 00:16:56;;;;;;;10.48;5.00;;;17.30;99.90;;;;;;5098338;27;20066;-80
2023/06/11 00:19:22;;;;;;;5.43;4.05;;;17.40;99.90;;;;;;5098730;27;20094;-81
2023/06/11 00:21:48;;;;;;;11.15;4.72;;;17.50;99.90;;;;;;5070068;28;20044;-78
2023/06/11 00:24:15;;;;;;;5.78;4.13;;;17.60;99.90;;;;;;5068512;28;20502;-80
2023/06/11 00:26:41;;;;;;;9.02;4.55;;;17.70;99.90;;;;;;5099175;28;20036;-81
2023/06/11 00:29:10;;;;;;;12.35;4.85;;;17.80;99.90;;;;;;5069663;28;20036;-80
2023/06/11 00:31:36;;;;;;;9.98;5.07;;;17.90;99.90;;;;;;5096448;28;20036;-79
2023/06/11 00:34:02;;;;;;;7.15;5.15;;;18.00;99.90;;;;;;5063139;28;20063;-80
2023/06/11 00:36:27;;;;;;;7.50;4.00;;;18.20;99.90;;;;;;5069214;28;20171;-80
2023/06/11 00:38:53;;;;;;;10.77;4.70;;;18.20;99.90;;;;;;5065920;28;20131;-80
2023/06/11 00:41:20;;;;;;;8.65;5.00;;;18.30;99.90;;;;;;5099589;28;20036;-82
2023/06/11 00:43:48;;;;;;;6.28;5.10;;;18.30;99.90;;;;;;5100626;27;20054;-78
2023/06/11 00:46:16;;;;;;;8.05;5.18;;;18.40;99.90;;;;;;5066769;28;20040;-80
2023/06/11 00:48:42;;;;;;;8.65;4.50;;;18.40;99.90;;;;;;5064346;28;20051;-80
2023/06/11 00:51:10;;;;;;;9.18;4.93;;;18.40;99.90;;;;;;5070768;28;20040;-81
2023/06/11 00:53:36;;;;;;;4.82;4.40;;;18.40;99.90;;;;;;5065903;28;20662;-80
2023/06/11 00:56:01;;;;;;;9.65;4.63;;;18.50;99.90;;;;;;5069785;28;20127;-81
2023/06/11 00:58:27;;;;;;;12.35;5.57;;;18.50;99.90;;;;;;5083253;28;20036;-82
2023/06/11 01:00:57;;;;;;;6.10;4.55;;;18.50;99.90;;;;;;5065972;28;20074;-81
2023/06/11 01:03:27;;;;;;;5.85;4.20;;;18.60;99.90;;;;;;5065725;28;20036;-81
2023/06/11 01:06:01;;;;;;;10.68;4.55;;;18.60;99.90;;;;;;5066772;28;20036;-82
2023/06/11 01:08:29;;;;;;;8.55;5.20;;;18.70;99.90;;;;;;5052342;28;20032;-80
2023/06/11 01:10:59;;;;;;;7.07;4.03;;;18.60;99.90;;;;;;5065248;28;20048;-79
2023/06/11 01:13:25;;;;;;;9.70;4.82;;;18.60;99.90;;;;;;5063443;28;20051;-80
2023/06/11 01:15:55;;;;;;;6.40;5.00;;;18.70;99.90;;;;;;5066810;28;20059;-80
2023/06/11 01:18:28;;;;;;;9.32;6.72;;;18.70;99.90;;;;;;5100666;28;20062;-79
2023/06/11 01:21:04;;;;;;;7.20;4.57;;;18.70;99.90;;;;;;5099664;28;20163;-79
2023/06/11 01:24:00;;;;;;;5.60;4.07;;;18.70;99.90;;;;;;5063455;28;20053;-81
2023/06/11 01:26:42;;;;;;;8.25;4.72;;;18.70;99.90;;;;;;5098540;28;20079;-81
2023/06/11 01:29:12;;;;;;;9.45;5.15;;;18.80;99.90;;;;;;5098688;28;20071;-81
2023/06/11 01:31:40;;;;;;;6.90;5.38;;;18.70;99.90;;;;;;5067913;28;20036;-80
2023/06/11 01:34:06;;;;;;;8.15;5.05;;;18.70;99.90;;;;;;5062999;28;20057;-82
2023/06/11 01:36:36;;;;;;;7.97;5.05;;;18.70;99.90;;;;;;5064787;28;20049;-81
2023/06/11 01:39:02;;;;;;;5.10;4.53;;;18.70;99.90;;;;;;5100648;28;20033;-81
2023/06/11 01:41:28;;;;;;;8.38;4.60;;;18.70;99.90;;;;;;5068200;28;20040;-81
2023/06/11 01:43:54;;;;;;;6.70;4.60;;;18.70;99.90;;;;;;5070985;28;20044;-80
2023/06/11 01:46:20;;;;;;;5.85;4.22;;;18.60;99.90;;;;;;5100342;27;20055;-81
2023/06/11 01:48:45;;;;;;;4.80;4.40;;;18.70;99.90;;;;;;5102490;27;20531;-81
2023/06/11 01:51:13;;;;;;;8.05;4.70;;;18.70;99.90;;;;;;5067695;28;20044;-81
2023/06/11 01:53:40;;;;;;;9.75;4.90;;;18.60;99.90;;;;;;5068039;28;20049;-80
2023/06/11 01:56:06;;;;;;;7.10;4.78;;;18.60;99.90;;;;;;5069316;28;20033;-79
2023/06/11 01:58:32;;;;;;;8.50;5.05;;;18.60;99.90;;;;;;5101309;27;20081;-81
2023/06/11 02:00:58;;;;;;;5.25;4.75;;;18.60;99.90;;;;;;5068672;28;20529;-81
2023/06/11 02:03:24;;;;;;;6.65;5.00;;;18.60;99.90;;;;;;5070171;28;20033;-80
2023/06/11 02:05:50;;;;;;;6.22;4.65;;;18.60;99.90;;;;;;5068957;28;20045;-81
2023/06/11 02:08:15;;;;;;;7.57;5.13;;;18.60;99.90;;;;;;5071325;28;20514;-81
2023/06/11 02:10:43;;;;;;;10.93;4.95;;;18.50;99.90;;;;;;5070978;28;20040;-81
2023/06/11 02:13:09;;;;;;;8.55;4.90;;;18.50;99.90;;;;;;5068839;28;20037;-81
2023/06/11 02:15:35;;;;;;;8.40;5.47;;;18.40;99.90;;;;;;5073356;28;20040;-80
2023/06/11 02:18:00;;;;;;;5.47;4.68;;;18.40;99.90;;;;;;5105596;27;21395;-81
2023/06/11 02:20:26;;;;;;;9.35;5.28;;;18.30;99.90;;;;;;5102080;27;20067;-81
2023/06/11 02:22:51;;;;;;;7.78;5.13;;;18.30;99.90;;;;;;5068358;28;20060;-81
2023/06/11 02:25:17;;;;;;;8.20;5.30;;;18.30;99.90;;;;;;5101643;27;20497;-82
2023/06/11 02:27:42;;;;;;;5.85;4.60;;;18.20;99.90;;;;;;5069557;28;20056;-81
2023/06/11 02:30:08;;;;;;;10.10;5.38;;;18.20;99.90;;;;;;5072702;28;20029;-81
2023/06/11 02:32:34;;;;;;;8.40;5.43;;;18.20;99.90;;;;;;5069515;28;20048;-81
2023/06/11 02:35:00;;;;;;;6.88;5.18;;;18.20;99.90;;;;;;5071460;28;20394;-81
2023/06/11 02:37:25;;;;;;;8.10;5.22;;;18.10;99.90;;;;;;5069665;28;20558;-79
2023/06/11 02:39:51;;;;;;;6.43;5.65;;;18.10;99.90;;;;;;5069108;28;20056;-80
2023/06/11 02:42:16;;;;;;;10.88;5.78;;;18.10;99.90;;;;;;5099118;27;20035;-82
2023/06/11 02:44:42;;;;;;;7.75;5.72;;;18.10;99.90;;;;;;5069380;28;20063;-80
2023/06/11 02:47:08;;;;;;;6.43;5.78;;;18.10;99.90;;;;;;5067377;28;20067;-81
2023/06/11 02:49:34;;;;;;;8.93;6.13;;;18.10;99.90;;;;;;5069991;28;20147;-81
2023/06/11 02:52:00;;;;;;;7.00;6.00;;;18.00;99.90;;;;;;5069924;28;20065;-80
2023/06/11 02:54:26;;;;;;;6.10;5.60;;;18.00;99.90;;;;;;5062901;28;20461;-81
2023/06/11 02:56:51;;;;;;;5.82;5.32;;;18.00;99.90;;;;;;5068079;28;20188;-80
2023/06/11 02:59:17;;;;;;;6.70;5.63;;;18.00;99.90;;;;;;5100209;27;20048;-81
2023/06/11 03:01:42;;;;;;;6.85;5.22;;;17.90;99.90;;;;;;5051509;28;20044;-80
2023/06/11 03:04:08;;;;;;;7.18;6.07;;;18.00;99.90;;;;;;5098259;27;20041;-82
2023/06/11 03:06:34;;;;;;;7.00;5.70;;;18.00;99.90;;;;;;5066677;28;20118;-82
2023/06/11 03:09:00;;;;;;;6.25;5.38;;;18.00;99.90;;;;;;5103604;27;20044;-81
2023/06/11 03:11:25;;;;;;;6.63;5.10;;;18.00;99.90;;;;;;5102313;27;20051;-81
2023/06/11 03:13:51;;;;;;;9.82;5.82;;;17.90;99.90;;;;;;5068017;28;20054;-79
2023/06/11 03:16:17;;;;;;;9.13;5.55;;;17.90;99.90;;;;;;5102651;27;20044;-80
2023/06/11 03:18:43;;;;;;;8.07;6.05;;;17.90;99.90;;;;;;5072025;28;20513;-81
2023/06/11 03:21:09;;;;;;;11.18;5.50;;;17.90;99.90;;;;;;5101570;27;20048;-82
2023/06/11 03:23:35;;;;;;;7.95;5.90;;;17.80;99.90;;;;;;5067485;28;20060;-80
2023/06/11 03:26:00;;;;;;;9.73;5.85;;;17.80;99.90;;;;;;5067716;28;20065;-81
2023/06/11 03:28:26;;;;;;;8.98;6.28;;;17.70;99.90;;;;;;5100066;27;20132;-81
2023/06/11 03:30:52;;;;;;;13.65;5.90;;;17.70;99.90;;;;;;5067335;28;20040;-81
2023/06/11 03:33:18;;;;;;;6.38;5.75;;;17.70;99.90;;;;;;5070075;28;20364;-82
2023/06/11 03:35:43;;;;;;;7.78;6.10;;;17.70;99.90;;;;;;5100919;27;20581;-82
2023/06/11 03:38:09;;;;;;;7.03;5.93;;;17.70;99.90;;;;;;5067426;28;20056;-80
2023/06/11 03:40:34;;;;;;;10.35;6.18;;;17.60;99.90;;;;;;5068532;28;20044;-81
2023/06/11 03:43:00;;;;;;;9.43;5.65;;;17.70;99.90;;;;;;5069351;28;20040;-81
2023/06/11 03:45:26;;;;;;;6.55;5.93;;;17.60;99.90;;;;;;5102724;27;20048;-81
2023/06/11 03:47:55;;;;;;;7.32;5.22;;;17.60;99.90;;;;;;5097418;27;20051;-81
2023/06/11 03:50:21;;;;;;;9.38;5.43;;;17.60;99.90;;;;;;5101497;27;20044;-82
2023/06/11 03:52:47;;;;;;;7.15;5.63;;;17.60;99.90;;;;;;5062567;28;20128;-81
2023/06/11 03:55:13;;;;;;;6.10;5.50;;;17.60;99.90;;;;;;5100313;27;20089;-81
2023/06/11 03:57:40;;;;;;;9.80;5.68;;;17.60;99.90;;;;;;5065425;28;20052;-80
2023/06/11 04:00:06;;;;;;;8.60;5.57;;;17.60;99.90;;;;;;5100892;27;20066;-81
2023/06/11 04:02:32;;;;;;;9.15;6.28;;;17.60;99.90;;;;;;5073589;28;20055;-80
2023/06/11 04:04:57;;;;;;;11.45;6.05;;;17.70;99.90;;;;;;5067747;28;20033;-80
2023/06/11 04:07:23;;;;;;;6.13;5.53;;;17.80;99.90;;;;;;5064299;28;20044;-80
2023/06/11 04:09:48;;;;;;;9.52;6.88;;;17.80;99.90;;;;;;5069784;28;20044;-80
2023/06/11 04:12:14;;;;;;;9.13;5.88;;;18.00;99.90;;;;;;5067012;28;20040;-81
2023/06/11 04:14:39;;;;;;;9.20;5.97;;;18.00;99.90;;;;;;5067111;28;20510;-79
2023/06/11 04:17:05;;;;;;;9.20;6.03;;;18.10;99.90;;;;;;5095972;27;20036;-80
2023/06/11 04:19:31;;;;;;;8.55;6.25;;;18.10;99.90;;;;;;5064764;28;20955;-82
2023/06/11 04:21:56;;;;;;;6.03;5.53;;;18.30;99.90;;;;;;5069420;28;20043;-79
2023/06/11 04:24:22;;;;;;;6.30;5.70;;;18.40;99.90;;;;;;5100935;27;20040;-81
2023/06/11 04:26:47;;;;;;;11.63;6.43;;;18.60;99.90;;;;;;5064921;28;20037;-80
2023/06/11 04:29:15;;;;;;;6.85;6.18;;;19.10;99.90;;;;;;5073848;28;20577;-81
2023/06/11 04:31:46;;;;;;;8.35;6.20;;;20.10;99.90;;;;;;5100961;27;20486;-80
2023/06/11 04:34:12;;;;;;;6.93;5.70;;;21.10;99.90;;;;;;5067882;28;20044;-82
2023/06/11 04:36:40;;;;;;;8.30;5.85;;;22.00;99.90;;;;;;5068151;28;20048;-81
2023/06/11 04:39:06;;;;;;;22.90;7.05;;;22.50;99.90;;;;;;5072580;28;20155;-81
2023/06/11 04:41:32;;;;;;;12.20;6.32;;;22.90;99.90;;;;;;5071506;28;22182;-81
2023/06/11 04:44:00;;;;;;;6.47;5.68;;;22.60;99.90;;;;;;5068426;28;20028;-81
2023/06/11 04:46:27;;;;;;;7.05;6.35;;;23.10;99.90;;;;;;5095159;27;20752;-80
2023/06/11 04:48:53;;;;;;;7.20;5.88;;;23.70;99.90;;;;;;5099155;28;20032;-81
2023/06/11 04:51:20;;;;;;;6.47;5.80;;;24.10;99.90;;;;;;5063753;28;20044;-81
2023/06/11 04:53:46;;;;;;;8.65;6.65;;;24.50;99.90;;;;;;5062983;28;20054;-81
2023/06/11 04:56:12;;;;;;;10.05;6.53;;;24.90;99.90;;;;;;5099323;28;20426;-83
2023/06/11 04:58:37;;;;;;;7.53;5.97;;;25.00;99.90;;;;;;5065502;28;20044;-82
2023/06/11 05:01:05;;;;;;;9.60;5.97;;;25.60;99.90;;;;;;5097912;28;20052;-82
2023/06/11 05:03:36;;;;;;;9.57;6.43;;;25.50;99.90;;;;;;5067246;28;20356;-82
2023/06/11 05:06:02;;;;;;;7.15;5.82;;;25.80;99.90;;;;;;5079587;28;20037;-82
2023/06/11 05:08:28;;;;;;;12.90;6.95;;;25.70;99.90;;;;;;5094286;28;20037;-79
2023/06/11 05:10:57;;;;;;;6.50;5.93;;;25.10;99.80;;;;;;5072146;28;20045;-82
2023/06/11 05:13:24;;;;;;;16.92;6.45;;;24.10;99.90;;;;;;5061078;28;20049;-82
2023/06/11 05:15:51;;;;;;;7.18;6.43;;;23.40;99.90;;;;;;5098416;28;20052;-82
2023/06/11 05:18:17;;;;;;;9.27;6.70;;;23.60;99.90;;;;;;5067829;28;20056;-83
2023/06/11 05:20:42;;;;;;;7.25;6.13;;;23.90;99.90;;;;;;5065253;28;20044;-83
2023/06/11 05:23:08;;;;;;;12.15;6.57;;;24.80;99.90;;;;;;5081881;28;20038;-82
2023/06/11 05:25:35;;;;;;;7.85;7.22;;;25.30;99.90;;;;;;5056187;28;20049;-82
2023/06/11 05:28:01;;;;;;;10.10;5.82;;;24.70;99.90;;;;;;5049735;28;20158;-82
2023/06/11 05:30:29;;;;;;;9.10;6.18;;;24.50;99.90;;;;;;5072819;28;20044;-82
2023/06/11 05:32:56;;;;;;;9.10;6.05;;;24.10;99.90;;;;;;5068492;28;20063;-82
2023/06/11 05:35:23;;;;;;;6.18;5.68;;;23.90;99.90;;;;;;5068037;28;20032;-80
2023/06/11 05:37:48;;;;;;;6.55;5.95;;;23.70;99.90;;;;;;5064592;28;20090;-79
2023/06/11 05:40:15;;;;;;;8.18;6.38;;;23.80;99.90;;;;;;5065474;28;20045;-79
2023/06/11 05:42:40;;;;;;;7.45;6.43;;;23.60;99.90;;;;;;5069007;28;20033;-82
2023/06/11 05:45:06;;;;;;;8.07;6.43;;;23.50;99.90;;;;;;5067290;28;20048;-82
2023/06/11 05:47:33;;;;;;;6.80;6.18;;;23.40;99.90;;;;;;5075295;28;20100;-83
2023/06/11 05:49:59;;;;;;;6.70;6.10;;;23.30;99.90;;;;;;5072675;28;20033;-81
2023/06/11 05:52:25;;;;;;;9.15;5.70;;;23.20;99.90;;;;;;5096977;27;20056;-81
2023/06/11 05:54:50;;;;;;;7.72;5.82;;;23.40;99.90;;;;;;5068536;28;20416;-82
2023/06/11 05:57:20;;;;;;;7.88;5.50;;;23.70;99.90;;;;;;5099324;27;20044;-82
2023/06/11 05:59:46;;;;;;;7.43;6.10;;;24.10;99.90;;;;;;5069245;28;20123;-82
2023/06/11 06:02:12;;;;;;;11.52;5.50;;;24.50;99.90;;;;;;5065202;28;20124;-82
2023/06/11 06:04:37;;;;;;;8.90;6.13;;;24.70;99.90;;;;;;5061707;28;20093;-82
2023/06/11 06:07:03;;;;;;;6.30;5.47;;;24.90;99.90;;;;;;5064859;28;20847;-82
2023/06/11 06:09:29;;;;;;;11.23;5.60;;;24.90;99.90;;;;;;5057212;28;20075;-81
2023/06/11 06:11:54;;;;;;;8.05;6.18;;;24.90;99.90;;;;;;5075458;28;20141;-82
2023/06/11 06:14:20;;;;;;;9.55;6.50;;;24.90;99.90;;;;;;5067640;28;20193;-82
2023/06/11 06:16:45;;;;;;;6.13;5.28;;;24.80;99.90;;;;;;5068394;28;20044;-82
2023/06/11 06:19:11;;;;;;;10.13;6.18;;;25.00;99.90;;;;;;5052514;28;20044;-81
2023/06/11 06:21:37;;;;;;;6.50;5.93;;;25.20;99.90;;;;;;5102865;27;20040;-82
2023/06/11 06:24:03;;;;;;;7.28;6.05;;;25.30;99.90;;;;;;5073052;28;20130;-83
2023/06/11 06:26:28;;;;;;;7.88;5.20;;;25.50;99.90;;;;;;5067198;28;20135;-83
2023/06/11 06:28:54;;;;;;;5.85;5.35;;;25.50;99.90;;;;;;5072823;28;20040;-81
2023/06/11 06:31:22;;;;;;;5.85;5.35;;;25.70;99.90;;;;;;5100428;27;20040;-82
2023/06/11 06:33:50;;;;;;;7.25;6.43;;;25.90;99.90;;;;;;5101835;27;20048;-81
2023/06/11 06:36:16;;;;;;;6.57;5.82;;;25.70;99.40;;;;;;5066406;28;20123;-81
2023/06/11 06:38:42;;;;;;;5.95;5.50;;;25.90;99.90;;;;;;5098099;27;20526;-79
2023/06/11 06:41:07;;;;;;;13.05;6.55;;;25.70;99.10;;;;;;5096769;27;20043;-79
2023/06/11 06:43:34;;;;;;;14.23;5.85;;;25.70;99.60;;;;;;5083650;28;20145;-80
2023/06/11 06:46:00;;;;;;;9.80;5.88;;;25.80;99.70;;;;;;5069249;28;20048;-82
2023/06/11 06:48:26;;;;;;;6.25;5.55;;;25.90;99.80;;;;;;5065388;28;20131;-82
2023/06/11 06:50:52;;;;;;;7.50;5.70;;;25.90;99.50;;;;;;5068754;28;20104;-81
2023/06/11 06:53:17;;;;;;;7.78;5.00;;;25.80;99.00;;;;;;5098571;27;20592;-82
2023/06/11 06:55:44;;;;;;;6.32;5.78;;;26.00;99.60;;;;;;5068172;28;20052;-79
2023/06/11 06:58:10;;;;;;;11.13;5.05;;;25.80;98.90;;;;;;5079169;28;20114;-81
2023/06/11 07:00:35;;;;;;;10.93;5.20;;;26.20;99.60;;;;;;5101346;27;20078;-81
2023/06/11 07:03:01;;;;;;;5.70;5.20;;;25.90;98.70;;;;;;5065283;28;20463;-82
2023/06/11 07:05:27;;;;;;;6.40;5.80;;;25.90;99.00;;;;;;5082172;28;20490;-80
2023/06/11 07:07:53;;;;;;;5.85;5.40;;;25.80;98.60;;;;;;5066670;28;20058;-81
2023/06/11 07:10:19;;;;;;;6.57;5.40;;;25.90;99.10;;;;;;5058633;28;20075;-81
2023/06/11 07:12:44;;;;;;;8.50;4.95;;;26.30;99.50;;;;;;5093776;28;20494;-82
2023/06/11 07:15:10;;;;;;;10.20;5.32;;;26.40;99.20;;;;;;5061986;28;20045;-81
2023/06/11 07:17:37;;;;;;;5.85;5.28;;;26.60;99.20;;;;;;5064831;28;20078;-82
2023/06/11 07:20:04;;;;;;;6.85;5.32;;;26.90;99.40;;;;;;5068660;28;20496;-81
2023/06/11 07:22:31;;;;;;;6.75;5.20;;;26.90;98.70;;;;;;5068884;28;20069;-81
2023/06/11 07:24:58;;;;;;;6.85;5.60;;;27.20;98.70;;;;;;5065749;28;20103;-81
2023/06/11 07:27:23;;;;;;;9.77;5.28;;;27.20;98.60;;;;;;5092677;27;20048;-80
2023/06/11 07:29:49;;;;;;;5.93;4.78;;;27.20;98.70;;;;;;5060960;28;20039;-81
2023/06/11 07:32:15;;;;;;;8.35;5.35;;;27.30;98.50;;;;;;5069793;28;20048;-81
2023/06/11 07:34:42;;;;;;;9.02;4.97;;;27.60;99.00;;;;;;5064659;28;20037;-82
2023/06/11 07:37:08;;;;;;;6.97;5.10;;;27.50;97.50;;;;;;5066908;28;20426;-81
2023/06/11 07:39:34;;;;;;;8.90;5.53;;;27.20;97.70;;;;;;5061181;28;20063;-82
2023/06/11 07:42:00;;;;;;;6.38;5.18;;;26.40;97.60;;;;;;5061062;28;20058;-81
2023/06/11 07:44:26;;;;;;;10.38;5.95;;;26.50;98.00;;;;;;5055093;28;20036;-82
2023/06/11 07:46:51;;;;;;;8.48;5.72;;;26.70;98.50;;;;;;5061424;28;20059;-82
2023/06/11 07:49:17;;;;;;;10.32;5.32;;;26.70;98.50;;;;;;5060641;28;20495;-82
2023/06/11 07:51:45;;;;;;;8.38;5.90;;;26.90;98.70;;;;;;5055842;28;20073;-81
2023/06/11 07:54:11;;;;;;;5.75;5.20;;;26.80;98.30;;;;;;5059253;28;20060;-83
2023/06/11 07:56:37;;;;;;;9.45;4.85;;;26.90;97.80;;;;;;5061921;28;20062;-83
2023/06/11 07:59:03;;;;;;;6.05;5.25;;;27.00;97.90;;;;;;5063458;28;20045;-83
2023/06/11 08:01:28;;;;;;;9.43;5.63;;;27.00;98.10;;;;;;5095400;27;20047;-83
2023/06/11 08:03:54;;;;;;;6.05;4.82;;;27.30;97.90;;;;;;5062941;28;20045;-82
2023/06/11 08:06:20;;;;;;;8.13;5.13;;;27.10;97.70;;;;;;5063118;28;20101;-80
2023/06/11 08:08:47;;;;;;;7.15;4.97;;;27.20;98.10;;;;;;5092426;27;20043;-83
2023/06/11 08:11:13;;;;;;;6.63;4.80;;;27.10;97.70;;;;;;5065322;28;20118;-81
2023/06/11 08:13:40;;;;;;;10.88;4.85;;;27.20;98.10;;;;;;5065319;28;20721;-80
2023/06/11 08:16:07;;;;;;;47.72;8.82;;;27.40;98.20;;;;;;5097953;27;20090;-80
2023/06/11 08:18:33;;;;;;;31.73;5.68;;;27.60;97.90;;;;;;5096628;27;20162;-80
2023/06/11 08:20:58;;;;;;;34.25;6.45;;;27.80;97.70;;;;;;5096019;27;20577;-81
2023/06/11 08:23:24;;;;;;;24.58;6.15;;;27.90;98.20;;;;;;5059315;28;20047;-82
2023/06/11 08:25:50;;;;;;;42.40;6.68;;;28.30;97.70;;;;;;5062374;28;20123;-80
2023/06/11 08:28:16;;;;;;;9.75;4.80;;;28.40;97.50;;;;;;5092647;27;20067;-81
2023/06/11 08:30:41;;;;;;;8.57;4.75;;;28.70;97.30;;;;;;5059936;28;20076;-81
2023/06/11 08:33:07;;;;;;;19.75;6.43;;;28.80;97.30;;;;;;5044630;28;20040;-82
2023/06/11 08:35:32;;;;;;;20.88;5.40;;;29.00;97.00;;;;;;5095252;27;20106;-80
2023/06/11 08:37:58;;;;;;;8.60;5.10;;;29.10;96.90;;;;;;5094241;27;20063;-81
2023/06/11 08:40:24;;;;;;;14.95;5.53;;;29.10;96.70;;;;;;5059315;28;20102;-82
2023/06/11 08:42:50;;;;;;;9.65;5.20;;;29.30;96.80;;;;;;5058269;28;20045;-82
2023/06/11 08:45:16;;;;;;;8.98;5.80;;;29.30;96.50;;;;;;5092298;28;20047;-85
2023/06/11 08:47:50;;;;;;;10.13;5.15;;;29.20;95.80;;;;;;5065252;28;20143;-83
2023/06/11 08:50:19;;;;;;;9.13;5.45;;;29.10;95.80;;;;;;5094412;28;20048;-80
2023/06/11 08:52:48;;;;;;;7.35;4.90;;;29.20;96.30;;;;;;5072709;28;20071;-81
2023/06/11 08:55:14;;;;;;;9.57;5.38;;;29.10;96.70;;;;;;5063086;28;20040;-80
2023/06/11 08:57:41;;;;;;;9.05;5.22;;;29.10;96.50;;;;;;5062364;28;20043;-81
2023/06/11 09:00:09;;;;;;;5.43;4.93;;;29.10;96.70;;;;;;5097334;28;20040;-81
2023/06/11 09:02:36;;;;;;;16.60;5.57;;;29.10;96.60;;;;;;5062017;28;20041;-81
2023/06/11 09:05:05;;;;;;;5.82;4.70;;;29.10;96.30;;;;;;5092429;28;20032;-80
2023/06/11 09:07:31;;;;;;;6.15;5.43;;;29.20;96.20;;;;;;5092703;28;20046;-81
2023/06/11 09:10:04;;;;;;;5.18;4.43;;;29.20;95.90;;;;;;5047850;28;20406;-82
2023/06/11 09:12:30;;;;;;;10.32;5.38;;;29.30;95.80;;;;;;5067171;28;20127;-81
2023/06/11 09:14:56;;;;;;;5.28;4.75;;;29.40;96.30;;;;;;5096492;28;20178;-81
2023/06/11 09:17:21;;;;;;;7.85;5.00;;;29.20;96.80;;;;;;5065180;28;20051;-80
2023/06/11 09:19:47;;;;;;;10.80;4.38;;;29.40;96.20;;;;;;5060268;28;20041;-81
2023/06/11 09:22:13;;;;;;;6.18;5.20;;;29.40;95.90;;;;;;5078307;28;20041;-82
2023/06/11 09:24:39;;;;;;;10.70;5.50;;;29.00;95.60;;;;;;5062519;28;20122;-82
2023/06/11 09:27:06;;;;;;;9.60;4.95;;;28.90;96.00;;;;;;5061827;28;20064;-81
2023/06/11 09:29:32;;;;;;;7.22;4.60;;;28.80;96.00;;;;;;5094490;28;20109;-82
2023/06/11 09:32:05;;;;;;;6.75;4.72;;;28.90;95.90;;;;;;5062341;28;20044;-82
2023/06/11 09:34:31;;;;;;;6.43;4.60;;;28.80;96.20;;;;;;5088084;28;20068;-82
2023/06/11 09:36:57;;;;;;;4.75;4.35;;;28.90;95.80;;;;;;5061910;28;20488;-81
2023/06/11 09:39:23;;;;;;;7.40;5.18;;;29.00;95.50;;;;;;5061443;28;20689;-82
2023/06/11 09:41:49;;;;;;;8.63;4.45;;;29.20;95.70;;;;;;5065983;28;20045;-82
2023/06/11 09:44:19;;;;;;;8.73;4.95;;;29.20;95.10;;;;;;5060922;28;20049;-82
2023/06/11 09:46:47;;;;;;;15.70;4.22;;;28.80;94.40;;;;;;5092316;28;20045;-83
2023/06/11 09:49:13;;;;;;;4.50;4.10;;;29.10;95.80;;;;;;5062150;28;20834;-80
2023/06/11 09:51:40;;;;;;;8.70;5.00;;;29.10;95.00;;;;;;5056542;28;20056;-81
2023/06/11 09:54:09;;;;;;;7.47;4.53;;;29.30;95.70;;;;;;5063225;28;20154;-80
2023/06/11 09:56:37;;;;;;;5.97;4.50;;;29.50;95.10;;;;;;5063879;28;20048;-80
2023/06/11 09:59:04;;;;;;;5.60;4.30;;;29.50;94.80;;;;;;5096985;28;20039;-80
2023/06/11 10:01:31;;;;;;;4.75;4.18;;;29.60;95.10;;;;;;5094883;28;20142;-80
2023/06/11 10:04:00;;;;;;;6.03;4.10;;;29.40;94.70;;;;;;5064261;28;20040;-80
2023/06/11 10:06:30;;;;;;;6.65;4.40;;;29.80;95.00;;;;;;5063111;28;20040;-78
2023/06/11 10:09:00;;;;;;;5.93;4.30;;;30.00;94.70;;;;;;5059125;28;20041;-79
2023/06/11 10:11:28;;;;;;;8.25;3.92;;;30.10;95.00;;;;;;5084855;28;20052;-78
2023/06/11 10:13:59;;;;;;;10.15;4.60;;;29.90;94.10;;;;;;5063666;28;20041;-80
2023/06/11 10:16:27;;;;;;;5.13;4.15;;;29.80;94.10;;;;;;5065591;28;20057;-77
2023/06/11 10:19:06;;;;;;;4.65;3.97;;;29.50;93.70;;;;;;5062238;28;20040;-80
2023/06/11 10:21:51;;;;;;;8.50;4.97;;;29.60;95.50;;;;;;5075903;28;20067;-80
2023/06/11 10:24:24;;;;;;;7.85;3.75;;;29.40;93.50;;;;;;5090494;27;20111;-82
2023/06/11 10:27:07;;;;;;;5.80;4.53;;;29.50;94.20;;;;;;5064849;28;20413;-81
2023/06/11 10:29:37;;;;;;;4.43;4.13;;;29.20;93.70;;;;;;5066026;28;20130;-80
2023/06/11 10:32:03;;;;;;;4.90;3.72;;;29.50;94.70;;;;;;5062504;28;20065;-81
2023/06/11 10:34:39;;;;;;;4.35;3.90;;;29.50;94.00;;;;;;5060121;28;20110;-81
2023/06/11 10:37:05;;;;;;;7.22;3.80;;;29.50;93.50;;;;;;5063608;28;20068;-82
2023/06/11 10:39:31;;;;;;;4.53;4.13;;;29.60;93.50;;;;;;5039893;28;20428;-80
2023/06/11 10:42:01;;;;;;;5.43;4.28;;;29.50;93.60;;;;;;5061815;28;20135;-80
2023/06/11 10:44:29;;;;;;;4.28;3.83;;;29.60;93.40;;;;;;5061756;28;20555;-81
2023/06/11 10:46:55;;;;;;;4.25;3.95;;;29.90;93.40;;;;;;5082106;28;20052;-80
2023/06/11 10:49:28;;;;;;;6.95;3.60;;;29.90;93.60;;;;;;5067148;28;20049;-81
2023/06/11 10:51:54;;;;;;;3.90;3.60;;;30.10;92.80;;;;;;5061410;28;20114;-81
2023/06/11 10:54:25;;;;;;;3.95;3.47;;;30.20;92.00;;;;;;5093835;27;20660;-81
2023/06/11 10:56:51;;;;;;;7.40;4.03;;;30.50;92.40;;;;;;5061713;28;20174;-80
2023/06/11 10:59:17;;;;;;;4.57;4.05;;;30.20;91.30;;;;;;5096568;27;20143;-82
2023/06/11 11:01:43;;;;;;;7.13;3.72;;;30.20;92.00;;;;;;5064496;28;20057;-79
2023/06/11 11:04:08;;;;;;;7.13;3.70;;;30.10;91.80;;;;;;5097626;27;20060;-81
2023/06/11 11:06:36;;;;;;;8.23;4.30;;;30.50;92.30;;;;;;5067611;28;20075;-80
2023/06/11 11:09:02;;;;;;;4.38;3.97;;;30.20;90.60;;;;;;5065941;28;20039;-81
2023/06/11 11:11:28;;;;;;;6.93;3.90;;;30.20;91.00;;;;;;5064164;28;20077;-80
2023/06/11 11:13:57;;;;;;;3.70;3.15;;;29.90;90.00;;;;;;5067614;28;20134;-80
2023/06/11 11:16:23;;;;;;;6.63;3.88;;;29.80;90.60;;;;;;5097086;27;20064;-80
2023/06/11 11:18:49;;;;;;;3.80;3.50;;;30.00;90.20;;;;;;5068898;28;20074;-79
2023/06/11 11:21:15;;;;;;;4.70;3.80;;;29.90;90.70;;;;;;5068144;28;20086;-80
2023/06/11 11:23:42;;;;;;;3.90;3.38;;;30.10;90.90;;;;;;5067976;28;20040;-80
2023/06/11 11:26:07;;;;;;;5.32;3.42;;;30.10;90.30;;;;;;5061112;28;20037;-82
2023/06/11 11:28:34;;;;;;;4.78;3.40;;;29.90;86.70;;;;;;5066231;28;20044;-80
2023/06/11 11:31:00;;;;;;;9.35;3.83;;;29.70;87.20;;;;;;5062693;28;20048;-79
2023/06/11 11:33:27;;;;;;;8.85;3.78;;;29.90;88.70;;;;;;5098289;27;20417;-81
2023/06/11 11:35:53;;;;;;;6.75;3.53;;;30.20;89.10;;;;;;5066502;28;20048;-80
2023/06/11 11:38:20;;;;;;;4.93;3.92;;;30.40;90.10;;;;;;5069698;28;20049;-79
2023/06/11 11:40:46;;;;;;;5.82;3.78;;;30.20;86.20;;;;;;5065021;28;20099;-80
2023/06/11 11:43:13;;;;;;;8.80;4.00;;;30.40;87.70;;;;;;5068422;28;20506;-79
2023/06/11 11:45:39;;;;;;;8.60;3.65;;;30.50;88.70;;;;;;5064840;28;20048;-80
2023/06/11 11:48:07;;;;;;;6.60;3.60;;;30.70;86.00;;;;;;5094720;28;20056;-80
2023/06/11 11:50:33;;;;;;;3.60;3.30;;;31.00;87.30;;;;;;5061824;28;20059;-79
2023/06/11 11:53:08;;;;;;;3.47;3.17;;;30.90;86.20;;;;;;5061200;28;20469;-80
2023/06/11 11:55:37;;;;;;;5.80;3.80;;;30.80;87.60;;;;;;5097526;27;20143;-79
2023/06/11 11:58:04;;;;;;;6.43;3.55;;;30.90;85.10;;;;;;5066923;28;20558;-79
2023/06/11 12:00:30;;;;;;;4.07;3.40;;;31.00;88.30;;;;;;5061896;28;20041;-79
2023/06/11 12:02:56;;;;;;;10.45;4.22;;;30.60;85.30;;;;;;5063041;28;20045;-81
2023/06/11 12:05:29;;;;;;;7.75;3.75;;;30.70;84.70;;;;;;5064574;28;20582;-79
2023/06/11 12:07:55;;;;;;;5.97;3.80;;;30.30;85.20;;;;;;5096033;27;20410;-79
2023/06/11 12:10:21;;;;;;;9.68;3.88;;;30.60;86.60;;;;;;5062607;28;20040;-79
2023/06/11 12:12:47;;;;;;;4.47;3.78;;;30.50;86.60;;;;;;5065847;28;20131;-79
2023/06/11 12:15:13;;;;;;;5.18;4.68;;;30.60;86.10;;;;;;5067259;28;20036;-79
2023/06/11 12:17:43;;;;;;;9.48;4.85;;;30.80;86.10;;;;;;5094522;28;20041;-80
2023/06/11 12:20:09;;;;;;;7.88;3.97;;;30.90;84.30;;;;;;5078948;28;20455;-79
2023/06/11 12:22:34;;;;;;;3.88;3.40;;;30.90;85.30;;;;;;5099375;27;20177;-79
2023/06/11 12:25:00;;;;;;;5.68;4.28;;;30.70;84.60;;;;;;5093175;27;21018;-79
2023/06/11 12:27:25;;;;;;;8.95;3.83;;;30.70;85.10;;;;;;5064877;28;20110;-79
2023/06/11 12:29:53;;;;;;;5.13;3.83;;;30.70;85.00;;;;;;5065358;28;20071;-80
2023/06/11 12:32:21;;;;;;;4.38;3.95;;;30.30;85.30;;;;;;5064058;28;20051;-80
2023/06/11 12:34:47;;;;;;;4.50;4.05;;;30.20;83.60;;;;;;5062710;28;20048;-79
2023/06/11 12:37:14;;;;;;;9.00;4.15;;;30.30;86.20;;;;;;5062685;28;20399;-80
2023/06/11 12:39:43;;;;;;;8.18;4.30;;;30.30;86.60;;;;;;5062394;28;20025;-80
2023/06/11 12:42:15;;;;;;;4.28;3.80;;;30.30;85.60;;;;;;5066282;28;20115;-79
2023/06/11 12:44:46;;;;;;;9.95;4.47;;;30.10;86.10;;;;;;5063490;28;20554;-80